Time;durP1;ratioP1;P1;durP2;ratioP2;P2;SDS_P1;SDS_P2;PMS_P1;PMS_P2;Temp;Humidity;BMP_temperature;BMP_pressure;BME280_temperature;BME280_humidity;BME280_pressure;Samples;Min_cycle;Max_cycle;Signal;HPM_P1;HPM_P2
2023/03/23 00:00:05;;;;;;;2.53;1.30;;;11.50;99.90;;;;;;7394937;19;20704;-78
2023/03/23 00:02:37;;;;;;;1.33;1.20;;;11.50;99.90;;;;;;7393247;19;21096;-78
2023/03/23 00:05:07;;;;;;;1.35;1.25;;;11.50;99.90;;;;;;7392983;19;20969;-79
2023/03/23 00:07:33;;;;;;;1.33;1.23;;;11.50;99.90;;;;;;7394990;19;20368;-78
2023/03/23 00:10:02;;;;;;;1.08;1.08;;;11.60;99.90;;;;;;7393777;19;20340;-80
2023/03/23 00:12:32;;;;;;;3.78;1.35;;;11.60;99.90;;;;;;7392642;19;20349;-81
2023/03/23 00:15:05;;;;;;;1.52;1.42;;;11.50;99.90;;;;;;7392405;19;20705;-84
2023/03/23 00:17:32;;;;;;;4.03;1.10;;;11.60;99.90;;;;;;7391236;19;20885;-77
2023/03/23 00:20:00;;;;;;;1.42;1.23;;;11.60;99.90;;;;;;7391454;19;20365;-80
2023/03/23 00:22:26;;;;;;;1.40;1.30;;;11.60;99.90;;;;;;7392797;19;20869;-80
2023/03/23 00:24:52;;;;;;;2.25;1.17;;;11.70;99.90;;;;;;7390680;19;20885;-78
2023/03/23 00:27:18;;;;;;;1.30;1.20;;;11.70;99.90;;;;;;7392544;19;20316;-81
2023/03/23 00:29:45;;;;;;;1.40;1.30;;;11.70;99.90;;;;;;7393297;19;20317;-78
2023/03/23 00:32:13;;;;;;;2.30;1.27;;;11.70;99.90;;;;;;7390710;19;20312;-85
2023/03/23 00:34:40;;;;;;;1.70;1.20;;;11.70;99.90;;;;;;7394624;19;21209;-80
2023/03/23 00:37:05;;;;;;;1.10;1.10;;;11.70;99.90;;;;;;7393383;19;20324;-80
2023/03/23 00:39:31;;;;;;;1.20;1.10;;;11.70;99.90;;;;;;7392393;19;20742;-79
2023/03/23 00:42:00;;;;;;;1.60;1.10;;;11.70;99.90;;;;;;7215806;19;3439796;-79
2023/03/23 00:44:30;;;;;;;0.90;0.90;;;11.70;99.90;;;;;;7394225;19;20878;-81
2023/03/23 00:46:56;;;;;;;1.20;1.10;;;11.80;99.90;;;;;;7395668;19;20312;-81
2023/03/23 00:49:25;;;;;;;1.10;1.00;;;11.90;99.90;;;;;;7394531;19;20327;-83
2023/03/23 00:51:55;;;;;;;1.25;1.15;;;11.90;99.90;;;;;;7390560;19;20337;-79
2023/03/23 00:54:21;;;;;;;1.25;1.10;;;11.90;99.90;;;;;;7393331;19;20336;-86
2023/03/23 00:56:49;;;;;;;0.93;0.93;;;12.00;99.90;;;;;;7392642;19;20424;-84
2023/03/23 00:59:14;;;;;;;1.20;1.10;;;12.00;99.90;;;;;;7391323;19;20821;-78
2023/03/23 01:01:40;;;;;;;1.37;1.27;;;12.00;99.90;;;;;;7392404;19;20325;-84
2023/03/23 01:04:06;;;;;;;1.40;1.30;;;12.00;99.90;;;;;;7389683;19;20328;-76
2023/03/23 01:06:38;;;;;;;1.30;1.20;;;12.00;99.90;;;;;;7393310;19;20353;-77
2023/03/23 01:09:04;;;;;;;1.00;1.00;;;12.10;99.90;;;;;;7391273;19;20340;-78
2023/03/23 01:11:31;;;;;;;1.60;1.10;;;12.10;99.90;;;;;;7398438;19;20344;-77
2023/03/23 01:13:57;;;;;;;1.30;1.20;;;12.10;99.90;;;;;;7398434;19;20444;-80
2023/03/23 01:16:23;;;;;;;2.03;1.23;;;12.10;99.90;;;;;;7398680;19;20877;-79
2023/03/23 01:18:49;;;;;;;1.08;1.05;;;12.10;99.90;;;;;;7399735;19;20340;-78
2023/03/23 01:21:15;;;;;;;1.00;1.00;;;12.10;99.90;;;;;;7397057;19;20323;-79
2023/03/23 01:23:41;;;;;;;1.33;1.23;;;12.20;99.90;;;;;;7399559;19;20345;-77
2023/03/23 01:26:14;;;;;;;1.33;1.23;;;12.20;99.90;;;;;;7398421;19;20312;-79
2023/03/23 01:28:40;;;;;;;1.30;1.20;;;12.10;99.90;;;;;;7396568;19;20860;-81
2023/03/23 01:31:08;;;;;;;1.30;1.20;;;12.10;99.90;;;;;;7398047;19;20352;-80
2023/03/23 01:33:36;;;;;;;1.42;1.33;;;12.10;99.90;;;;;;7399309;19;20321;-82
2023/03/23 01:36:03;;;;;;;1.25;1.15;;;12.10;99.90;;;;;;7400124;19;20340;-77
2023/03/23 01:38:29;;;;;;;1.08;1.00;;;12.10;99.90;;;;;;7399896;19;20317;-79
2023/03/23 01:40:56;;;;;;;1.10;1.10;;;12.00;99.90;;;;;;7397094;19;20356;-82
2023/03/23 01:43:21;;;;;;;1.80;1.30;;;12.00;99.90;;;;;;7397110;19;20320;-80
2023/03/23 01:45:47;;;;;;;1.70;1.20;;;11.90;99.90;;;;;;7398344;19;20949;-78
2023/03/23 01:48:26;;;;;;;0.90;0.90;;;11.90;99.90;;;;;;7400714;19;20324;-79
2023/03/23 01:50:57;;;;;;;1.40;1.30;;;11.90;99.90;;;;;;7294915;19;2004545;-77
2023/03/23 01:53:26;;;;;;;1.40;1.30;;;11.90;99.90;;;;;;7398659;19;20910;-78
2023/03/23 01:55:52;;;;;;;1.63;1.15;;;11.80;99.90;;;;;;7401284;19;20329;-81
2023/03/23 01:58:20;;;;;;;1.30;1.20;;;11.80;99.90;;;;;;7395283;19;20325;-81
2023/03/23 02:00:47;;;;;;;1.23;1.13;;;11.70;99.90;;;;;;7398880;19;20314;-77
2023/03/23 02:03:13;;;;;;;2.20;1.30;;;11.80;99.90;;;;;;7400587;19;20324;-77
2023/03/23 02:05:40;;;;;;;0.90;0.90;;;11.70;99.90;;;;;;7401949;19;20351;-81
2023/03/23 02:08:12;;;;;;;1.50;1.40;;;11.70;99.90;;;;;;7399892;19;20368;-78
2023/03/23 02:10:38;;;;;;;1.63;1.38;;;11.80;99.90;;;;;;7399693;19;20308;-80
2023/03/23 02:13:05;;;;;;;2.30;1.20;;;11.80;99.90;;;;;;7400112;19;20719;-81
2023/03/23 02:15:37;;;;;;;1.00;1.00;;;11.90;99.90;;;;;;7399607;19;20336;-80
2023/03/23 02:18:13;;;;;;;1.17;1.08;;;12.00;99.90;;;;;;7397774;19;20355;-81
2023/03/23 02:20:51;;;;;;;1.15;1.13;;;12.00;99.90;;;;;;7396891;19;20693;-78
2023/03/23 02:23:45;;;;;;;1.50;1.40;;;12.00;99.90;;;;;;7295177;19;2004398;-79
2023/03/23 02:26:34;;;;;;;1.20;1.10;;;12.00;99.90;;;;;;7400608;19;20312;-78
2023/03/23 02:29:23;;;;;;;1.65;1.13;;;12.00;99.90;;;;;;7293642;19;2004220;-83
2023/03/23 02:32:06;;;;;;;1.10;1.10;;;12.10;99.90;;;;;;7272887;19;2004414;-79
2023/03/23 02:34:48;;;;;;;1.40;1.30;;;12.10;99.90;;;;;;7397343;19;20335;-82
2023/03/23 02:37:19;;;;;;;1.60;1.25;;;12.00;99.90;;;;;;7396258;19;20324;-78
2023/03/23 02:39:49;;;;;;;3.38;1.33;;;12.00;99.90;;;;;;7396709;19;20315;-83
2023/03/23 02:42:23;;;;;;;3.13;1.13;;;12.00;99.90;;;;;;7293872;19;2004360;-78
2023/03/23 02:44:49;;;;;;;1.30;1.20;;;12.00;99.90;;;;;;7396542;19;20332;-84
2023/03/23 02:47:18;;;;;;;1.65;1.38;;;11.90;99.90;;;;;;7396173;19;20319;-77
2023/03/23 02:49:44;;;;;;;1.47;1.10;;;11.90;99.90;;;;;;7398588;19;20342;-82
2023/03/23 02:52:14;;;;;;;2.72;1.30;;;11.90;99.90;;;;;;7396247;19;20348;-85
2023/03/23 02:54:41;;;;;;;1.85;1.50;;;11.80;99.90;;;;;;7396400;19;20327;-80
2023/03/23 02:57:07;;;;;;;1.20;1.10;;;11.80;99.90;;;;;;7397350;19;20746;-83
2023/03/23 02:59:33;;;;;;;1.30;1.20;;;11.80;99.90;;;;;;7396154;19;20399;-78
2023/03/23 03:02:04;;;;;;;1.25;1.20;;;11.80;99.90;;;;;;7392163;19;20313;-80
2023/03/23 03:04:30;;;;;;;1.07;1.03;;;11.70;99.90;;;;;;7396684;19;20316;-79
2023/03/23 03:07:02;;;;;;;1.20;1.20;;;11.70;99.90;;;;;;7395210;19;20345;-81
2023/03/23 03:09:56;;;;;;;1.33;1.23;;;11.70;99.90;;;;;;7395744;19;20305;-80
2023/03/23 03:12:47;;;;;;;1.00;1.00;;;11.60;99.90;;;;;;7289901;19;2004333;-81
2023/03/23 03:15:26;;;;;;;1.10;1.10;;;11.50;99.90;;;;;;7398087;19;20344;-80
2023/03/23 03:18:06;;;;;;;1.08;1.08;;;11.50;99.90;;;;;;7291867;19;2004375;-75
2023/03/23 03:20:32;;;;;;;1.00;1.00;;;11.50;99.90;;;;;;7394306;19;20327;-80
2023/03/23 03:22:57;;;;;;;0.90;0.90;;;11.50;99.90;;;;;;7395365;19;20757;-80
2023/03/23 03:25:24;;;;;;;2.27;1.23;;;11.40;99.90;;;;;;7393758;19;20320;-80
2023/03/23 03:27:52;;;;;;;1.30;1.20;;;11.40;99.90;;;;;;7393865;19;20340;-77
2023/03/23 03:30:28;;;;;;;2.20;1.25;;;11.40;99.90;;;;;;7393004;19;20313;-78
2023/03/23 03:32:54;;;;;;;1.30;1.20;;;11.40;99.90;;;;;;7392640;19;20325;-80
2023/03/23 03:35:23;;;;;;;0.98;0.98;;;11.40;99.90;;;;;;7392954;19;20308;-77
2023/03/23 03:37:50;;;;;;;1.27;1.20;;;11.40;99.90;;;;;;7393879;19;20796;-77
2023/03/23 03:40:18;;;;;;;1.17;1.10;;;11.40;99.90;;;;;;7392485;19;20317;-79
2023/03/23 03:42:44;;;;;;;0.85;0.85;;;11.40;99.90;;;;;;7393743;19;20356;-86
2023/03/23 03:45:15;;;;;;;1.10;1.00;;;11.40;99.90;;;;;;7393896;19;20358;-80
2023/03/23 03:47:40;;;;;;;1.00;1.00;;;11.50;99.90;;;;;;7392584;19;20292;-86
2023/03/23 03:50:06;;;;;;;1.00;1.00;;;11.50;99.90;;;;;;7390960;19;20327;-80
2023/03/23 03:52:33;;;;;;;1.02;1.00;;;11.60;99.90;;;;;;7391657;19;20408;-78
2023/03/23 03:54:59;;;;;;;1.00;1.00;;;11.70;99.90;;;;;;7391605;19;20385;-79
2023/03/23 03:57:26;;;;;;;1.10;1.00;;;11.80;99.90;;;;;;7394977;19;20332;-83
2023/03/23 04:00:14;;;;;;;1.50;1.20;;;11.70;99.90;;;;;;7395181;19;20344;-81
2023/03/23 04:02:50;;;;;;;0.97;0.90;;;11.80;99.90;;;;;;7188838;19;2004446;-85
2023/03/23 04:05:16;;;;;;;1.02;1.00;;;11.80;99.90;;;;;;7290397;19;2004323;-80
2023/03/23 04:07:45;;;;;;;1.20;1.00;;;11.90;99.90;;;;;;7395500;19;20324;-80
2023/03/23 04:10:12;;;;;;;1.23;1.13;;;11.90;99.90;;;;;;7395543;19;20333;-80
2023/03/23 04:12:40;;;;;;;1.08;0.98;;;12.00;99.90;;;;;;7394743;19;20309;-80
2023/03/23 04:15:29;;;;;;;0.90;0.90;;;12.00;99.90;;;;;;7293345;19;2004525;-83
2023/03/23 04:17:56;;;;;;;1.48;1.02;;;11.90;99.90;;;;;;7393320;19;20432;-78
2023/03/23 04:20:22;;;;;;;1.40;1.08;;;11.90;99.90;;;;;;7391645;19;20309;-82
2023/03/23 04:22:49;;;;;;;1.30;1.20;;;12.00;99.90;;;;;;7393232;19;20909;-79
2023/03/23 04:25:20;;;;;;;1.02;1.02;;;12.00;99.90;;;;;;7393352;19;20308;-77
2023/03/23 04:27:52;;;;;;;0.98;0.98;;;12.00;99.90;;;;;;7291500;19;2004348;-81
2023/03/23 04:30:21;;;;;;;1.80;1.00;;;12.00;99.90;;;;;;7392396;19;20357;-79
2023/03/23 04:32:55;;;;;;;1.00;1.00;;;12.00;99.90;;;;;;7386383;19;20304;-80
2023/03/23 04:35:25;;;;;;;3.27;1.03;;;12.10;99.90;;;;;;7392836;19;20312;-84
2023/03/23 04:38:02;;;;;;;1.08;1.08;;;12.00;99.90;;;;;;7392628;19;20357;-82
2023/03/23 04:40:27;;;;;;;2.60;1.88;;;12.00;99.90;;;;;;7392210;19;20340;-80
2023/03/23 04:43:05;;;;;;;1.08;1.05;;;12.10;99.90;;;;;;7385798;19;20721;-79
2023/03/23 04:45:58;;;;;;;2.70;1.00;;;12.10;99.90;;;;;;7282823;19;2004562;-85
2023/03/23 04:48:26;;;;;;;0.90;0.90;;;12.10;99.90;;;;;;7383800;19;20309;-83
2023/03/23 04:51:06;;;;;;;1.20;1.10;;;12.10;99.90;;;;;;7382826;19;20312;-76
2023/03/23 04:53:32;;;;;;;0.90;0.90;;;12.20;99.90;;;;;;7383783;19;20363;-83
2023/03/23 04:55:58;;;;;;;1.90;1.03;;;12.20;99.90;;;;;;7384984;19;20337;-79
2023/03/23 04:58:27;;;;;;;1.10;1.00;;;12.20;99.90;;;;;;7383859;19;20703;-78
2023/03/23 05:01:04;;;;;;;1.25;1.15;;;12.20;99.90;;;;;;7387262;19;20400;-80
2023/03/23 05:03:30;;;;;;;1.63;1.13;;;12.20;99.90;;;;;;7388406;19;20332;-80
2023/03/23 05:05:57;;;;;;;1.00;0.90;;;12.30;99.90;;;;;;7388828;19;20342;-89
2023/03/23 05:08:24;;;;;;;2.28;1.00;;;12.30;99.90;;;;;;7388732;19;20422;-85
2023/03/23 05:10:55;;;;;;;1.30;1.20;;;12.30;99.90;;;;;;7388903;19;20337;-86
2023/03/23 05:13:24;;;;;;;1.02;1.00;;;12.30;99.90;;;;;;7381137;19;20359;-85
2023/03/23 05:15:52;;;;;;;2.70;1.10;;;12.40;99.90;;;;;;7383308;19;20345;-86
2023/03/23 05:18:20;;;;;;;1.40;1.17;;;12.40;99.90;;;;;;7385928;19;20389;-83
2023/03/23 05:20:46;;;;;;;1.40;1.10;;;12.30;99.90;;;;;;7386280;19;20329;-80
2023/03/23 05:23:20;;;;;;;1.10;1.00;;;12.40;99.90;;;;;;7384311;19;20320;-80
2023/03/23 05:25:53;;;;;;;12.88;5.78;;;12.40;99.90;;;;;;7388986;19;20340;-80
2023/03/23 05:28:21;;;;;;;1.15;1.10;;;12.40;99.90;;;;;;7394970;19;20412;-80
2023/03/23 05:30:53;;;;;;;1.00;1.00;;;12.40;99.90;;;;;;7399780;19;20325;-83
2023/03/23 05:33:20;;;;;;;2.90;1.10;;;12.40;99.90;;;;;;7399148;19;20333;-82
2023/03/23 05:36:13;;;;;;;1.10;1.00;;;12.50;99.90;;;;;;7389354;19;20323;-76
2023/03/23 05:39:14;;;;;;;1.10;1.10;;;12.60;99.90;;;;;;7288527;19;2004669;-79
2023/03/23 05:42:06;;;;;;;1.20;1.00;;;12.70;99.90;;;;;;7286175;19;2004285;-81
2023/03/23 05:44:45;;;;;;;1.20;1.10;;;12.70;99.90;;;;;;7384953;19;20304;-80
2023/03/23 05:47:11;;;;;;;0.90;0.90;;;12.70;99.90;;;;;;7390595;19;20632;-84
2023/03/23 05:49:39;;;;;;;2.20;1.35;;;12.70;99.90;;;;;;7410434;19;20332;-82
2023/03/23 05:52:08;;;;;;;3.42;2.15;;;12.80;99.90;;;;;;7400134;19;20309;-86
2023/03/23 05:54:34;;;;;;;1.20;1.17;;;12.80;99.90;;;;;;7407050;19;20359;-84
2023/03/23 05:57:00;;;;;;;3.60;2.27;;;12.80;99.90;;;;;;7413538;19;20340;-89
2023/03/23 05:59:42;;;;;;;1.15;1.13;;;12.90;99.90;;;;;;7415801;19;20333;-88
2023/03/23 06:02:14;;;;;;;1.20;1.10;;;12.90;99.90;;;;;;7411923;19;20309;-78
2023/03/23 06:04:40;;;;;;;0.90;0.90;;;13.00;99.90;;;;;;7398570;19;20308;-77
2023/03/23 06:07:19;;;;;;;2.60;1.10;;;13.10;99.90;;;;;;7311749;19;2004294;-81
2023/03/23 06:09:52;;;;;;;2.30;1.10;;;13.00;99.90;;;;;;7398674;19;20344;-78
2023/03/23 06:12:39;;;;;;;1.10;1.00;;;13.00;99.90;;;;;;7407077;19;20395;-79
2023/03/23 06:15:31;;;;;;;1.40;1.20;;;13.00;99.90;;;;;;7307729;19;2004544;-84
2023/03/23 06:18:09;;;;;;;1.17;1.10;;;13.00;99.90;;;;;;7413340;19;20336;-86
2023/03/23 06:20:48;;;;;;;1.00;1.00;;;13.00;99.90;;;;;;7307584;19;2004147;-84
2023/03/23 06:23:34;;;;;;;1.37;1.10;;;13.10;99.90;;;;;;7409710;19;20349;-83
2023/03/23 06:26:07;;;;;;;2.10;1.10;;;13.00;99.90;;;;;;7409357;19;20365;-81
2023/03/23 06:28:33;;;;;;;1.00;1.00;;;13.00;99.90;;;;;;7411860;19;20333;-87
2023/03/23 06:31:03;;;;;;;1.02;1.00;;;13.00;99.90;;;;;;7412725;19;20908;-82
2023/03/23 06:33:28;;;;;;;0.90;0.90;;;13.10;99.90;;;;;;7411731;19;20356;-80
2023/03/23 06:36:23;;;;;;;1.00;1.00;;;13.20;99.90;;;;;;7310120;19;2004441;-82
2023/03/23 06:39:01;;;;;;;1.60;1.20;;;13.20;99.90;;;;;;7411780;19;20351;-87
2023/03/23 06:41:42;;;;;;;1.23;1.13;;;13.30;99.90;;;;;;7408728;19;20421;-80
2023/03/23 06:44:13;;;;;;;1.20;1.10;;;13.40;99.90;;;;;;7409803;19;20673;-83
2023/03/23 06:46:38;;;;;;;1.20;1.20;;;13.40;99.90;;;;;;7410132;19;20313;-82
2023/03/23 06:49:16;;;;;;;1.40;1.10;;;13.50;99.90;;;;;;7410662;19;20309;-81
2023/03/23 06:51:50;;;;;;;1.20;1.10;;;13.60;99.90;;;;;;7306310;19;2004179;-83
2023/03/23 06:54:16;;;;;;;1.23;1.13;;;13.70;99.90;;;;;;7412184;19;20339;-81
2023/03/23 06:56:43;;;;;;;1.33;1.10;;;13.70;99.90;;;;;;7415205;19;20313;-82
2023/03/23 06:59:10;;;;;;;0.90;0.90;;;13.80;99.90;;;;;;7412901;19;20308;-80
2023/03/23 07:01:36;;;;;;;1.20;1.20;;;13.80;99.90;;;;;;7409178;19;20320;-77
2023/03/23 07:04:03;;;;;;;2.28;0.98;;;13.90;99.90;;;;;;7408646;19;20418;-82
2023/03/23 07:06:39;;;;;;;1.20;1.10;;;13.90;99.90;;;;;;7388161;19;20305;-81
2023/03/23 07:09:07;;;;;;;0.90;0.90;;;14.00;99.90;;;;;;7404531;19;20321;-79
2023/03/23 07:11:34;;;;;;;1.60;1.30;;;13.90;99.90;;;;;;7404511;19;20340;-79
2023/03/23 07:14:06;;;;;;;1.83;1.20;;;14.00;99.90;;;;;;7409445;19;20312;-81
2023/03/23 07:16:32;;;;;;;1.15;1.10;;;14.10;99.90;;;;;;7410781;19;20344;-78
2023/03/23 07:18:58;;;;;;;1.27;1.27;;;14.10;99.90;;;;;;7403539;19;20317;-79
2023/03/23 07:21:24;;;;;;;1.35;1.25;;;14.10;99.90;;;;;;7401064;19;20392;-81
2023/03/23 07:23:50;;;;;;;1.00;1.00;;;14.10;99.90;;;;;;7401409;19;20378;-80
2023/03/23 07:26:34;;;;;;;1.83;1.20;;;14.10;99.90;;;;;;7407751;19;20348;-79
2023/03/23 07:29:00;;;;;;;1.50;1.20;;;14.20;99.90;;;;;;7402172;19;20388;-79
2023/03/23 07:31:32;;;;;;;1.38;1.27;;;14.20;99.90;;;;;;7406971;19;20375;-78
2023/03/23 07:33:59;;;;;;;0.93;0.93;;;14.20;99.90;;;;;;7400706;19;20352;-76
2023/03/23 07:36:37;;;;;;;2.17;1.00;;;14.20;99.90;;;;;;7404558;19;20329;-81
2023/03/23 07:39:05;;;;;;;1.10;1.05;;;14.10;99.90;;;;;;7399394;19;20389;-79
2023/03/23 07:41:32;;;;;;;1.13;1.03;;;14.00;99.90;;;;;;7399691;19;20328;-77
2023/03/23 07:44:00;;;;;;;1.13;1.10;;;13.90;99.90;;;;;;7397517;19;20420;-79
2023/03/23 07:46:33;;;;;;;1.30;1.20;;;13.90;99.90;;;;;;7399406;19;20313;-79
2023/03/23 07:49:15;;;;;;;1.13;1.13;;;13.80;99.90;;;;;;7400945;19;20316;-79
2023/03/23 07:51:46;;;;;;;1.10;1.10;;;13.80;99.90;;;;;;7298673;19;2004161;-77
2023/03/23 07:54:15;;;;;;;1.23;1.13;;;13.80;99.90;;;;;;7394966;19;20333;-80
2023/03/23 07:57:01;;;;;;;1.40;1.30;;;13.80;99.90;;;;;;7296973;19;2004345;-81
2023/03/23 07:59:31;;;;;;;1.40;1.20;;;13.80;99.90;;;;;;7401202;19;20373;-81
2023/03/23 08:01:58;;;;;;;0.90;0.90;;;13.80;99.90;;;;;;7399206;19;20380;-83
2023/03/23 08:04:36;;;;;;;1.10;1.10;;;13.70;99.90;;;;;;7397775;19;20352;-82
2023/03/23 08:07:25;;;;;;;1.38;1.27;;;13.60;99.90;;;;;;7299576;19;2004428;-79
2023/03/23 08:10:10;;;;;;;1.10;1.10;;;13.50;99.90;;;;;;7396217;19;20311;-80
2023/03/23 08:12:51;;;;;;;1.15;1.15;;;13.40;99.90;;;;;;7290646;19;2004738;-82
2023/03/23 08:15:53;;;;;;;2.00;1.25;;;13.30;99.90;;;;;;7293659;19;2004523;-84
2023/03/23 08:18:31;;;;;;;2.40;1.25;;;13.10;99.90;;;;;;7398628;19;20874;-81
2023/03/23 08:21:16;;;;;;;2.42;1.30;;;12.90;99.90;;;;;;7396368;19;20344;-81
2023/03/23 08:24:01;;;;;;;1.60;1.30;;;12.80;99.90;;;;;;7297068;19;2004402;-80
2023/03/23 08:26:45;;;;;;;2.05;1.60;;;12.70;99.90;;;;;;7402854;19;20499;-83
2023/03/23 08:29:23;;;;;;;3.10;1.88;;;12.60;99.90;;;;;;7301793;19;2004363;-83
2023/03/23 08:32:08;;;;;;;1.30;1.20;;;12.50;99.90;;;;;;7401988;19;20344;-89
2023/03/23 08:35:00;;;;;;;1.67;1.58;;;12.50;99.90;;;;;;7301484;19;2004496;-80
2023/03/23 08:37:45;;;;;;;1.60;1.40;;;12.50;99.90;;;;;;7405044;19;20323;-88
2023/03/23 08:40:23;;;;;;;1.40;1.30;;;12.50;99.90;;;;;;7301426;19;2004197;-80
2023/03/23 08:43:13;;;;;;;1.37;1.20;;;12.50;99.90;;;;;;7401674;19;20667;-86
2023/03/23 08:46:11;;;;;;;1.17;1.10;;;12.50;99.90;;;;;;7301505;19;2004173;-82
2023/03/23 08:48:56;;;;;;;1.33;1.23;;;12.50;99.90;;;;;;7300731;19;2004680;-85
2023/03/23 08:51:41;;;;;;;1.30;1.20;;;12.50;99.90;;;;;;7403600;19;20311;-80
2023/03/23 08:54:16;;;;;;;1.42;1.33;;;12.50;99.90;;;;;;7402326;19;20316;-80
2023/03/23 08:56:54;;;;;;;1.45;1.33;;;12.50;99.90;;;;;;7294315;19;2004178;-79
2023/03/23 08:59:31;;;;;;;1.45;1.35;;;12.50;99.90;;;;;;7400431;19;20699;-91
2023/03/23 09:02:17;;;;;;;1.33;1.23;;;12.50;99.90;;;;;;7305780;19;2004158;-85
2023/03/23 09:04:52;;;;;;;1.73;1.30;;;12.40;99.90;;;;;;7410097;19;20308;-91
2023/03/23 09:07:31;;;;;;;1.05;1.05;;;12.50;99.90;;;;;;7408827;19;20341;-86
2023/03/23 09:13:25;;;;;;;1.40;1.20;;;12.60;99.90;;;;;;7280057;19;2004449;-86
2023/03/23 09:15:51;;;;;;;1.30;1.20;;;12.60;99.90;;;;;;7407486;19;20313;-88
2023/03/23 09:18:18;;;;;;;1.25;1.15;;;12.60;99.90;;;;;;7407947;19;20317;-83
2023/03/23 09:20:43;;;;;;;1.45;1.35;;;12.60;99.90;;;;;;7407472;19;20311;-91
2023/03/23 09:23:09;;;;;;;1.63;1.40;;;12.60;99.90;;;;;;7405738;19;20378;-90
2023/03/23 09:25:35;;;;;;;1.30;1.20;;;12.60;99.90;;;;;;7407387;19;20345;-93
2023/03/23 09:28:01;;;;;;;3.05;1.90;;;12.60;99.90;;;;;;7407407;19;20316;-91
2023/03/23 09:30:30;;;;;;;1.50;1.40;;;12.70;99.90;;;;;;7385916;19;20313;-76
2023/03/23 09:32:57;;;;;;;2.72;1.50;;;12.70;99.90;;;;;;7388457;19;20320;-77
2023/03/23 09:35:23;;;;;;;3.28;1.83;;;12.80;99.90;;;;;;7394722;19;20670;-77
2023/03/23 09:37:50;;;;;;;2.63;1.50;;;12.80;99.90;;;;;;7392379;19;20308;-81
2023/03/23 09:40:21;;;;;;;1.33;1.23;;;12.90;99.90;;;;;;7390142;19;20712;-81
2023/03/23 09:42:52;;;;;;;1.90;1.50;;;12.90;99.90;;;;;;7389431;19;20364;-84
2023/03/23 09:45:41;;;;;;;1.38;1.27;;;13.00;99.90;;;;;;7392053;19;21238;-79
2023/03/23 09:48:06;;;;;;;1.27;1.17;;;13.10;99.90;;;;;;7291094;19;2004523;-77
2023/03/23 09:50:33;;;;;;;1.43;1.33;;;13.10;99.90;;;;;;7386733;19;20351;-77
2023/03/23 09:53:18;;;;;;;2.53;1.60;;;13.10;99.90;;;;;;7384383;19;20328;-76
2023/03/23 09:55:45;;;;;;;1.52;1.42;;;13.20;99.90;;;;;;7389230;19;20325;-80
2023/03/23 09:58:20;;;;;;;1.40;1.30;;;13.30;99.90;;;;;;7417283;19;20344;-86
2023/03/23 10:01:00;;;;;;;2.10;1.55;;;13.50;99.90;;;;;;7416117;19;20324;-83
2023/03/23 10:03:27;;;;;;;1.83;1.48;;;13.50;99.90;;;;;;7419549;19;20301;-84
2023/03/23 10:05:54;;;;;;;3.80;1.43;;;13.60;99.90;;;;;;7423401;19;20317;-80
2023/03/23 10:08:30;;;;;;;1.30;1.20;;;13.60;99.90;;;;;;7420376;19;20293;-77
2023/03/23 10:11:03;;;;;;;1.70;1.60;;;13.70;99.90;;;;;;7423100;19;20312;-82
2023/03/23 10:13:41;;;;;;;2.13;1.50;;;13.80;99.90;;;;;;7321067;19;2004146;-81
2023/03/23 10:16:30;;;;;;;1.60;1.50;;;13.90;99.90;;;;;;7426261;19;20622;-82
2023/03/23 10:19:15;;;;;;;2.17;1.40;;;13.90;99.90;;;;;;7424948;19;20316;-86
2023/03/23 10:21:44;;;;;;;1.53;1.43;;;13.90;99.90;;;;;;7317007;19;2004872;-82
2023/03/23 10:24:12;;;;;;;1.50;1.40;;;13.90;99.90;;;;;;7422914;19;21018;-83
2023/03/23 10:26:51;;;;;;;1.35;1.27;;;13.90;99.90;;;;;;7424399;19;20367;-78
2023/03/23 10:29:36;;;;;;;1.60;1.50;;;13.90;99.90;;;;;;7424805;19;20352;-79
2023/03/23 10:32:15;;;;;;;4.28;3.10;;;13.90;99.90;;;;;;7318717;19;2004348;-83
2023/03/23 10:34:47;;;;;;;2.00;1.50;;;14.00;99.90;;;;;;7421307;19;20348;-84
2023/03/23 10:37:24;;;;;;;1.58;1.48;;;14.00;99.90;;;;;;7422498;19;20337;-86
2023/03/23 10:39:52;;;;;;;1.30;1.20;;;14.10;99.90;;;;;;7423113;19;20332;-81
2023/03/23 10:42:28;;;;;;;1.40;1.30;;;14.10;99.90;;;;;;7422586;19;20320;-80
2023/03/23 10:44:56;;;;;;;1.30;1.20;;;14.30;99.90;;;;;;7425378;19;20333;-79
2023/03/23 10:47:22;;;;;;;1.60;1.50;;;14.40;99.90;;;;;;7425451;19;20377;-78
2023/03/23 10:49:49;;;;;;;1.65;1.40;;;14.50;99.90;;;;;;7424854;19;20328;-78
2023/03/23 10:52:37;;;;;;;1.83;1.45;;;14.60;99.90;;;;;;7419269;19;20437;-78
2023/03/23 10:55:22;;;;;;;1.50;1.40;;;14.70;99.90;;;;;;7321307;19;2004121;-79
2023/03/23 10:58:25;;;;;;;1.75;1.48;;;14.70;99.90;;;;;;7414117;19;20753;-79
2023/03/23 11:00:50;;;;;;;1.40;1.30;;;14.70;99.90;;;;;;7282871;19;2004156;-79
2023/03/23 11:03:17;;;;;;;1.43;1.33;;;14.80;99.90;;;;;;7386019;19;20312;-77
2023/03/23 11:05:50;;;;;;;1.38;1.20;;;14.80;99.90;;;;;;7387544;19;20316;-76
2023/03/23 11:08:42;;;;;;;1.33;1.23;;;14.70;99.90;;;;;;7388416;19;20312;-80
2023/03/23 11:11:20;;;;;;;1.20;1.10;;;14.70;99.90;;;;;;7282188;19;2004123;-80
2023/03/23 11:13:48;;;;;;;1.33;1.23;;;14.70;99.90;;;;;;7386938;19;20357;-78
2023/03/23 11:16:27;;;;;;;1.77;1.20;;;14.80;99.90;;;;;;7385020;19;20332;-77
2023/03/23 11:18:53;;;;;;;1.30;1.20;;;14.80;99.90;;;;;;7386879;19;20388;-78
2023/03/23 11:21:20;;;;;;;1.10;1.10;;;14.90;99.90;;;;;;7387185;19;20345;-80
2023/03/23 11:23:51;;;;;;;1.43;1.33;;;14.90;99.90;;;;;;7383166;19;20320;-78
2023/03/23 11:26:28;;;;;;;1.35;1.25;;;14.90;99.90;;;;;;7386528;19;20400;-79
2023/03/23 11:29:03;;;;;;;1.30;1.20;;;15.00;99.90;;;;;;7385455;19;20329;-78
2023/03/23 11:31:36;;;;;;;1.40;1.30;;;14.90;99.90;;;;;;7280181;19;2019316;-79
2023/03/23 11:34:16;;;;;;;2.28;1.23;;;15.00;99.90;;;;;;7383602;19;20309;-77
2023/03/23 11:36:47;;;;;;;1.65;1.17;;;15.10;99.90;;;;;;7386458;19;20404;-77
2023/03/23 11:39:22;;;;;;;1.40;1.30;;;15.10;99.90;;;;;;7386282;19;20343;-79
2023/03/23 11:41:48;;;;;;;1.55;1.35;;;15.20;99.90;;;;;;7382935;19;20312;-77
2023/03/23 11:44:14;;;;;;;1.33;1.23;;;15.20;99.90;;;;;;7383708;19;20868;-79
2023/03/23 11:46:57;;;;;;;1.58;1.30;;;15.40;99.90;;;;;;7383938;19;20312;-78
2023/03/23 11:49:36;;;;;;;1.50;1.40;;;15.60;99.90;;;;;;7385720;19;20374;-79
2023/03/23 11:52:40;;;;;;;2.25;1.70;;;15.70;99.90;;;;;;7277377;19;2013301;-78
2023/03/23 11:55:26;;;;;;;1.40;1.30;;;15.80;99.90;;;;;;7281281;19;2004384;-78
2023/03/23 11:57:53;;;;;;;1.38;1.27;;;15.80;99.90;;;;;;7385685;19;20321;-79
2023/03/23 12:00:20;;;;;;;1.30;1.20;;;15.70;99.90;;;;;;7386437;19;20320;-79
2023/03/23 12:02:57;;;;;;;2.13;1.17;;;15.70;99.90;;;;;;7383479;19;21283;-78
2023/03/23 12:05:53;;;;;;;3.00;1.55;;;15.60;99.90;;;;;;7282982;19;2004398;-79
2023/03/23 12:08:30;;;;;;;1.23;1.20;;;15.70;99.90;;;;;;7383537;19;20979;-79
2023/03/23 12:11:30;;;;;;;1.40;1.30;;;15.80;99.90;;;;;;7383364;19;20325;-77
2023/03/23 12:14:20;;;;;;;2.88;1.48;;;15.70;99.90;;;;;;7280768;19;2004358;-78
2023/03/23 12:17:07;;;;;;;1.40;1.30;;;15.80;99.90;;;;;;7283500;19;2004664;-78
2023/03/23 12:20:10;;;;;;;1.30;1.20;;;15.70;99.90;;;;;;7281277;19;2004491;-77
2023/03/23 12:22:45;;;;;;;1.50;1.30;;;15.80;99.90;;;;;;7275142;19;2004429;-79
2023/03/23 12:25:17;;;;;;;1.20;1.20;;;16.00;99.90;;;;;;7383580;19;20320;-79
2023/03/23 12:28:20;;;;;;;1.45;1.20;;;16.00;99.90;;;;;;7382685;19;20503;-79
2023/03/23 12:30:58;;;;;;;1.42;1.33;;;16.00;99.90;;;;;;7278538;19;2004292;-79
2023/03/23 12:33:45;;;;;;;1.30;1.20;;;16.00;99.90;;;;;;7382304;19;20309;-78
2023/03/23 12:36:29;;;;;;;2.50;1.57;;;16.10;99.90;;;;;;7281229;19;2004583;-78
2023/03/23 12:38:58;;;;;;;1.30;1.20;;;16.10;99.90;;;;;;7382064;19;20301;-78
2023/03/23 12:41:37;;;;;;;1.48;1.33;;;16.10;99.90;;;;;;7383939;19;20305;-78
2023/03/23 12:44:10;;;;;;;1.25;1.10;;;16.10;99.90;;;;;;7278911;19;2004325;-78
2023/03/23 12:47:13;;;;;;;1.50;1.40;;;16.30;99.90;;;;;;7380268;19;20330;-78
2023/03/23 12:49:49;;;;;;;1.70;1.40;;;16.30;99.90;;;;;;7278495;19;2004366;-79
2023/03/23 12:52:28;;;;;;;1.43;1.33;;;16.30;99.90;;;;;;7377387;19;20338;-79
2023/03/23 12:55:02;;;;;;;1.60;1.50;;;16.30;99.90;;;;;;7381766;19;20313;-78
2023/03/23 12:57:48;;;;;;;1.40;1.30;;;16.30;99.90;;;;;;7383182;19;20333;-77
2023/03/23 13:00:27;;;;;;;1.20;1.10;;;16.40;99.90;;;;;;7277782;19;2004315;-78
2023/03/23 13:03:14;;;;;;;1.58;1.48;;;16.20;99.90;;;;;;7380220;19;20717;-78
2023/03/23 13:05:46;;;;;;;1.40;1.30;;;16.10;99.90;;;;;;7281030;19;2004483;-77
2023/03/23 13:08:14;;;;;;;1.60;1.15;;;16.10;99.90;;;;;;7389278;19;20312;-78
2023/03/23 13:10:44;;;;;;;1.30;1.20;;;16.10;99.90;;;;;;7386687;19;20344;-78
2023/03/23 13:13:24;;;;;;;1.20;1.10;;;16.10;99.90;;;;;;7385785;19;20392;-77
2023/03/23 13:16:07;;;;;;;1.33;1.20;;;16.20;99.90;;;;;;7388594;19;20309;-79
2023/03/23 13:18:58;;;;;;;1.23;1.13;;;16.30;99.90;;;;;;7284111;19;2004534;-78